sensor_id;sensor_type;location;lat;lon;timestamp;P1;durP1;ratioP1;P2;durP2;ratioP2
4089;SDS011;2059;48.538;12.146;2023-03-03T00:04:36;51.73;;;28.33;;
4089;SDS011;2059;48.538;12.146;2023-03-03T00:09:38;53.57;;;28.30;;
4089;SDS011;2059;48.538;12.146;2023-03-03T00:14:40;47.20;;;28.50;;
4089;SDS011;2059;48.538;12.146;2023-03-03T00:19:43;55.47;;;30.00;;
4089;SDS011;2059;48.538;12.146;2023-03-03T00:24:46;52.50;;;30.07;;
4089;SDS011;2059;48.538;12.146;2023-03-03T00:29:49;50.57;;;28.80;;
4089;SDS011;2059;48.538;12.146;2023-03-03T00:34:55;56.73;;;29.50;;
4089;SDS011;2059;48.538;12.146;2023-03-03T00:40:21;53.57;;;29.20;;
4089;SDS011;2059;48.538;12.146;2023-03-03T00:45:31;50.10;;;29.30;;
4089;SDS011;2059;48.538;12.146;2023-03-03T00:50:40;49.73;;;27.90;;
4089;SDS011;2059;48.538;12.146;2023-03-03T00:55:44;52.50;;;29.53;;
4089;SDS011;2059;48.538;12.146;2023-03-03T01:00:48;49.70;;;28.20;;
4089;SDS011;2059;48.538;12.146;2023-03-03T01:05:52;53.17;;;31.17;;
4089;SDS011;2059;48.538;12.146;2023-03-03T01:10:55;54.60;;;30.23;;
4089;SDS011;2059;48.538;12.146;2023-03-03T01:15:58;47.70;;;28.67;;
4089;SDS011;2059;48.538;12.146;2023-03-03T01:21:02;50.00;;;30.67;;
4089;SDS011;2059;48.538;12.146;2023-03-03T01:26:04;52.83;;;30.00;;
4089;SDS011;2059;48.538;12.146;2023-03-03T01:31:06;55.63;;;30.57;;
4089;SDS011;2059;48.538;12.146;2023-03-03T01:36:09;54.00;;;30.40;;
4089;SDS011;2059;48.538;12.146;2023-03-03T01:41:11;51.10;;;30.00;;
4089;SDS011;2059;48.538;12.146;2023-03-03T01:46:28;48.60;;;29.00;;
4089;SDS011;2059;48.538;12.146;2023-03-03T01:51:49;50.33;;;29.70;;
4089;SDS011;2059;48.538;12.146;2023-03-03T01:56:54;55.83;;;29.53;;
4089;SDS011;2059;48.538;12.146;2023-03-03T02:01:58;52.57;;;29.93;;
4089;SDS011;2059;48.538;12.146;2023-03-03T02:07:03;54.23;;;30.17;;
4089;SDS011;2059;48.538;12.146;2023-03-03T02:12:10;52.30;;;28.77;;
4089;SDS011;2059;48.538;12.146;2023-03-03T02:17:15;49.90;;;27.23;;
4089;SDS011;2059;48.538;12.146;2023-03-03T02:22:20;58.20;;;30.30;;
4089;SDS011;2059;48.538;12.146;2023-03-03T02:27:26;53.33;;;30.20;;
4089;SDS011;2059;48.538;12.146;2023-03-03T02:32:31;53.53;;;29.17;;
4089;SDS011;2059;48.538;12.146;2023-03-03T02:37:33;51.97;;;30.80;;
4089;SDS011;2059;48.538;12.146;2023-03-03T02:42:36;60.30;;;32.60;;
4089;SDS011;2059;48.538;12.146;2023-03-03T02:47:38;55.43;;;29.30;;
4089;SDS011;2059;48.538;12.146;2023-03-03T02:52:40;51.27;;;27.93;;
4089;SDS011;2059;48.538;12.146;2023-03-03T02:57:43;56.53;;;30.60;;
4089;SDS011;2059;48.538;12.146;2023-03-03T03:02:44;53.00;;;30.70;;
4089;SDS011;2059;48.538;12.146;2023-03-03T03:07:46;54.83;;;29.40;;
4089;SDS011;2059;48.538;12.146;2023-03-03T03:12:49;57.10;;;31.70;;
4089;SDS011;2059;48.538;12.146;2023-03-03T03:17:52;55.93;;;30.13;;
4089;SDS011;2059;48.538;12.146;2023-03-03T03:22:53;58.43;;;33.20;;
4089;SDS011;2059;48.538;12.146;2023-03-03T03:27:57;53.87;;;30.20;;
4089;SDS011;2059;48.538;12.146;2023-03-03T03:32:58;58.83;;;32.27;;
4089;SDS011;2059;48.538;12.146;2023-03-03T03:38:00;59.93;;;32.43;;
4089;SDS011;2059;48.538;12.146;2023-03-03T03:43:03;59.87;;;31.00;;
4089;SDS011;2059;48.538;12.146;2023-03-03T03:48:05;54.73;;;29.43;;
4089;SDS011;2059;48.538;12.146;2023-03-03T03:53:07;53.20;;;28.30;;
4089;SDS011;2059;48.538;12.146;2023-03-03T03:58:11;54.87;;;29.97;;
4089;SDS011;2059;48.538;12.146;2023-03-03T04:03:14;51.17;;;29.13;;
4089;SDS011;2059;48.538;12.146;2023-03-03T04:08:15;59.67;;;30.73;;
4089;SDS011;2059;48.538;12.146;2023-03-03T04:13:18;61.27;;;29.03;;
4089;SDS011;2059;48.538;12.146;2023-03-03T04:18:20;57.87;;;29.50;;
4089;SDS011;2059;48.538;12.146;2023-03-03T04:23:22;51.53;;;27.90;;
4089;SDS011;2059;48.538;12.146;2023-03-03T04:28:25;51.93;;;30.87;;
4089;SDS011;2059;48.538;12.146;2023-03-03T04:33:27;52.30;;;28.90;;
4089;SDS011;2059;48.538;12.146;2023-03-03T04:38:29;58.23;;;30.20;;
4089;SDS011;2059;48.538;12.146;2023-03-03T04:43:32;55.70;;;31.30;;
4089;SDS011;2059;48.538;12.146;2023-03-03T04:48:34;56.10;;;31.30;;
4089;SDS011;2059;48.538;12.146;2023-03-03T04:53:35;59.83;;;30.70;;
4089;SDS011;2059;48.538;12.146;2023-03-03T04:58:39;50.40;;;29.40;;
4089;SDS011;2059;48.538;12.146;2023-03-03T05:03:40;60.07;;;30.97;;
4089;SDS011;2059;48.538;12.146;2023-03-03T05:08:42;57.40;;;31.17;;
4089;SDS011;2059;48.538;12.146;2023-03-03T05:13:45;53.57;;;30.30;;
4089;SDS011;2059;48.538;12.146;2023-03-03T05:18:47;56.33;;;29.77;;
4089;SDS011;2059;48.538;12.146;2023-03-03T05:23:48;54.20;;;29.97;;
4089;SDS011;2059;48.538;12.146;2023-03-03T05:28:52;53.80;;;29.33;;
4089;SDS011;2059;48.538;12.146;2023-03-03T05:33:54;57.13;;;30.20;;
4089;SDS011;2059;48.538;12.146;2023-03-03T05:38:56;60.50;;;30.70;;
4089;SDS011;2059;48.538;12.146;2023-03-03T05:43:59;60.33;;;32.10;;
4089;SDS011;2059;48.538;12.146;2023-03-03T05:49:01;55.17;;;30.27;;
4089;SDS011;2059;48.538;12.146;2023-03-03T05:54:03;56.83;;;30.30;;
4089;SDS011;2059;48.538;12.146;2023-03-03T05:59:06;58.43;;;33.20;;
4089;SDS011;2059;48.538;12.146;2023-03-03T06:04:08;67.03;;;32.60;;
4089;SDS011;2059;48.538;12.146;2023-03-03T06:09:09;54.83;;;31.87;;
4089;SDS011;2059;48.538;12.146;2023-03-03T06:14:12;51.40;;;30.63;;
4089;SDS011;2059;48.538;12.146;2023-03-03T06:19:15;56.00;;;30.57;;
4089;SDS011;2059;48.538;12.146;2023-03-03T06:24:17;54.13;;;30.20;;
4089;SDS011;2059;48.538;12.146;2023-03-03T06:29:20;59.40;;;31.77;;
4089;SDS011;2059;48.538;12.146;2023-03-03T06:34:22;56.30;;;32.17;;
4089;SDS011;2059;48.538;12.146;2023-03-03T06:39:24;56.97;;;30.73;;
4089;SDS011;2059;48.538;12.146;2023-03-03T06:44:27;55.23;;;31.40;;
4089;SDS011;2059;48.538;12.146;2023-03-03T06:49:28;52.60;;;31.60;;
4089;SDS011;2059;48.538;12.146;2023-03-03T06:54:30;59.23;;;32.10;;
4089;SDS011;2059;48.538;12.146;2023-03-03T06:59:33;57.23;;;31.70;;
4089;SDS011;2059;48.538;12.146;2023-03-03T07:04:35;58.47;;;32.13;;
4089;SDS011;2059;48.538;12.146;2023-03-03T07:09:38;60.37;;;32.67;;
4089;SDS011;2059;48.538;12.146;2023-03-03T07:14:42;62.00;;;31.93;;
4089;SDS011;2059;48.538;12.146;2023-03-03T07:19:45;56.10;;;31.17;;
4089;SDS011;2059;48.538;12.146;2023-03-03T07:24:48;55.23;;;33.17;;
4089;SDS011;2059;48.538;12.146;2023-03-03T07:29:53;56.07;;;32.43;;
4089;SDS011;2059;48.538;12.146;2023-03-03T07:35:01;53.97;;;33.03;;
4089;SDS011;2059;48.538;12.146;2023-03-03T07:40:26;54.80;;;34.13;;
4089;SDS011;2059;48.538;12.146;2023-03-03T07:45:36;61.10;;;34.50;;
4089;SDS011;2059;48.538;12.146;2023-03-03T07:50:38;53.30;;;32.07;;
4089;SDS011;2059;48.538;12.146;2023-03-03T07:55:40;59.07;;;35.00;;
4089;SDS011;2059;48.538;12.146;2023-03-03T08:06:38;56.97;;;32.80;;
4089;SDS011;2059;48.538;12.146;2023-03-03T08:11:43;49.90;;;30.60;;
4089;SDS011;2059;48.538;12.146;2023-03-03T08:16:51;50.47;;;30.07;;
4089;SDS011;2059;48.538;12.146;2023-03-03T08:21:55;46.17;;;29.37;;
4089;SDS011;2059;48.538;12.146;2023-03-03T08:27:01;51.90;;;31.90;;
4089;SDS011;2059;48.538;12.146;2023-03-03T08:32:03;52.00;;;31.03;;
4089;SDS011;2059;48.538;12.146;2023-03-03T08:37:06;54.63;;;32.40;;
4089;SDS011;2059;48.538;12.146;2023-03-03T08:42:08;49.80;;;31.43;;
4089;SDS011;2059;48.538;12.146;2023-03-03T08:47:10;54.70;;;31.83;;
4089;SDS011;2059;48.538;12.146;2023-03-03T08:52:13;54.13;;;31.43;;
4089;SDS011;2059;48.538;12.146;2023-03-03T08:57:14;50.43;;;30.00;;
4089;SDS011;2059;48.538;12.146;2023-03-03T09:02:16;47.40;;;32.20;;
4089;SDS011;2059;48.538;12.146;2023-03-03T09:07:19;50.90;;;31.97;;
4089;SDS011;2059;48.538;12.146;2023-03-03T09:12:21;53.97;;;33.33;;
4089;SDS011;2059;48.538;12.146;2023-03-03T09:17:29;44.93;;;30.57;;
4089;SDS011;2059;48.538;12.146;2023-03-03T09:22:34;46.37;;;30.70;;
4089;SDS011;2059;48.538;12.146;2023-03-03T09:27:37;52.17;;;31.70;;
4089;SDS011;2059;48.538;12.146;2023-03-03T09:32:40;47.10;;;32.67;;
4089;SDS011;2059;48.538;12.146;2023-03-03T09:37:43;48.57;;;34.27;;
4089;SDS011;2059;48.538;12.146;2023-03-03T09:42:50;48.87;;;32.10;;
4089;SDS011;2059;48.538;12.146;2023-03-03T09:53:32;43.50;;;30.30;;
4089;SDS011;2059;48.538;12.146;2023-03-03T09:58:49;49.90;;;31.20;;
4089;SDS011;2059;48.538;12.146;2023-03-03T10:04:10;49.53;;;30.50;;
4089;SDS011;2059;48.538;12.146;2023-03-03T10:09:36;46.30;;;30.20;;
4089;SDS011;2059;48.538;12.146;2023-03-03T10:20:32;52.57;;;31.10;;
4089;SDS011;2059;48.538;12.146;2023-03-03T10:25:51;46.03;;;31.20;;
4089;SDS011;2059;48.538;12.146;2023-03-03T10:30:59;46.90;;;31.57;;
4089;SDS011;2059;48.538;12.146;2023-03-03T10:36:16;45.70;;;31.10;;
4089;SDS011;2059;48.538;12.146;2023-03-03T10:46:45;45.30;;;30.90;;
4089;SDS011;2059;48.538;12.146;2023-03-03T10:57:34;48.70;;;31.03;;
4089;SDS011;2059;48.538;12.146;2023-03-03T11:02:45;48.40;;;31.90;;
4089;SDS011;2059;48.538;12.146;2023-03-03T11:07:56;47.70;;;31.20;;
4089;SDS011;2059;48.538;12.146;2023-03-03T11:13:03;44.53;;;31.30;;
4089;SDS011;2059;48.538;12.146;2023-03-03T11:18:16;44.33;;;31.07;;
4089;SDS011;2059;48.538;12.146;2023-03-03T11:23:28;46.43;;;31.23;;
4089;SDS011;2059;48.538;12.146;2023-03-03T11:28:52;43.30;;;30.80;;
4089;SDS011;2059;48.538;12.146;2023-03-03T11:34:09;44.37;;;32.10;;
4089;SDS011;2059;48.538;12.146;2023-03-03T11:39:19;43.67;;;31.20;;
4089;SDS011;2059;48.538;12.146;2023-03-03T11:44:24;40.60;;;30.83;;
4089;SDS011;2059;48.538;12.146;2023-03-03T11:49:34;43.50;;;31.27;;
4089;SDS011;2059;48.538;12.146;2023-03-03T11:54:41;38.70;;;29.67;;
4089;SDS011;2059;48.538;12.146;2023-03-03T11:59:53;43.53;;;30.77;;
4089;SDS011;2059;48.538;12.146;2023-03-03T12:05:05;41.47;;;30.33;;
4089;SDS011;2059;48.538;12.146;2023-03-03T12:10:21;45.13;;;29.50;;
4089;SDS011;2059;48.538;12.146;2023-03-03T12:15:30;41.80;;;29.10;;
4089;SDS011;2059;48.538;12.146;2023-03-03T12:20:42;45.37;;;30.47;;
4089;SDS011;2059;48.538;12.146;2023-03-03T12:25:50;42.53;;;29.07;;
4089;SDS011;2059;48.538;12.146;2023-03-03T12:31:04;39.00;;;29.43;;
4089;SDS011;2059;48.538;12.146;2023-03-03T12:36:21;43.70;;;27.93;;
4089;SDS011;2059;48.538;12.146;2023-03-03T12:41:49;41.10;;;27.20;;
4089;SDS011;2059;48.538;12.146;2023-03-03T12:47:02;35.70;;;26.60;;
4089;SDS011;2059;48.538;12.146;2023-03-03T12:52:14;38.30;;;28.00;;
4089;SDS011;2059;48.538;12.146;2023-03-03T12:57:29;35.03;;;28.47;;
4089;SDS011;2059;48.538;12.146;2023-03-03T13:02:40;40.20;;;29.40;;
4089;SDS011;2059;48.538;12.146;2023-03-03T13:07:50;47.70;;;27.70;;
4089;SDS011;2059;48.538;12.146;2023-03-03T13:12:59;35.57;;;26.83;;
4089;SDS011;2059;48.538;12.146;2023-03-03T13:18:14;34.70;;;26.63;;
4089;SDS011;2059;48.538;12.146;2023-03-03T13:23:32;34.10;;;25.60;;
4089;SDS011;2059;48.538;12.146;2023-03-03T13:28:42;32.63;;;25.57;;
4089;SDS011;2059;48.538;12.146;2023-03-03T13:33:56;35.33;;;25.37;;
4089;SDS011;2059;48.538;12.146;2023-03-03T13:39:04;33.37;;;24.20;;
4089;SDS011;2059;48.538;12.146;2023-03-03T13:44:16;33.60;;;25.00;;
4089;SDS011;2059;48.538;12.146;2023-03-03T13:49:30;31.53;;;22.53;;
4089;SDS011;2059;48.538;12.146;2023-03-03T13:54:50;28.10;;;22.73;;
4089;SDS011;2059;48.538;12.146;2023-03-03T14:00:03;30.43;;;23.23;;
4089;SDS011;2059;48.538;12.146;2023-03-03T14:05:14;29.40;;;24.07;;
4089;SDS011;2059;48.538;12.146;2023-03-03T14:10:20;31.23;;;22.33;;
4089;SDS011;2059;48.538;12.146;2023-03-03T14:15:26;28.03;;;22.13;;
4089;SDS011;2059;48.538;12.146;2023-03-03T14:20:31;27.97;;;22.90;;
4089;SDS011;2059;48.538;12.146;2023-03-03T14:25:56;33.00;;;24.90;;
4089;SDS011;2059;48.538;12.146;2023-03-03T14:30:58;39.37;;;26.63;;
4089;SDS011;2059;48.538;12.146;2023-03-03T14:36:15;34.47;;;26.33;;
4089;SDS011;2059;48.538;12.146;2023-03-03T14:41:35;33.07;;;26.03;;
4089;SDS011;2059;48.538;12.146;2023-03-03T14:46:40;27.80;;;23.60;;
4089;SDS011;2059;48.538;12.146;2023-03-03T14:51:44;34.27;;;26.57;;
4089;SDS011;2059;48.538;12.146;2023-03-03T14:57:02;40.87;;;26.53;;
4089;SDS011;2059;48.538;12.146;2023-03-03T15:02:20;32.50;;;23.33;;
4089;SDS011;2059;48.538;12.146;2023-03-03T15:07:33;32.03;;;23.60;;
4089;SDS011;2059;48.538;12.146;2023-03-03T15:12:38;34.67;;;26.10;;
4089;SDS011;2059;48.538;12.146;2023-03-03T15:17:41;29.30;;;25.30;;
4089;SDS011;2059;48.538;12.146;2023-03-03T15:22:54;30.27;;;26.37;;
4089;SDS011;2059;48.538;12.146;2023-03-03T15:28:23;35.80;;;26.90;;
4089;SDS011;2059;48.538;12.146;2023-03-03T15:33:34;43.17;;;27.07;;
4089;SDS011;2059;48.538;12.146;2023-03-03T15:38:46;33.50;;;26.57;;
4089;SDS011;2059;48.538;12.146;2023-03-03T15:44:05;39.90;;;27.33;;
4089;SDS011;2059;48.538;12.146;2023-03-03T15:49:21;34.83;;;27.90;;
4089;SDS011;2059;48.538;12.146;2023-03-03T15:54:42;31.30;;;25.07;;
4089;SDS011;2059;48.538;12.146;2023-03-03T15:59:54;32.33;;;25.43;;
4089;SDS011;2059;48.538;12.146;2023-03-03T16:05:15;36.67;;;27.17;;
4089;SDS011;2059;48.538;12.146;2023-03-03T16:10:23;34.77;;;26.77;;
4089;SDS011;2059;48.538;12.146;2023-03-03T16:15:40;32.60;;;26.97;;
4089;SDS011;2059;48.538;12.146;2023-03-03T16:20:49;37.27;;;28.90;;
4089;SDS011;2059;48.538;12.146;2023-03-03T16:26:05;33.67;;;26.77;;
4089;SDS011;2059;48.538;12.146;2023-03-03T16:31:16;35.67;;;27.90;;
4089;SDS011;2059;48.538;12.146;2023-03-03T16:36:25;38.53;;;29.77;;
4089;SDS011;2059;48.538;12.146;2023-03-03T16:41:37;39.23;;;29.07;;
4089;SDS011;2059;48.538;12.146;2023-03-03T16:47:10;35.83;;;29.30;;
4089;SDS011;2059;48.538;12.146;2023-03-03T16:52:24;39.30;;;27.90;;
4089;SDS011;2059;48.538;12.146;2023-03-03T16:57:37;40.03;;;27.27;;
4089;SDS011;2059;48.538;12.146;2023-03-03T17:08:19;40.27;;;27.13;;
4089;SDS011;2059;48.538;12.146;2023-03-03T17:13:41;40.20;;;27.67;;
4089;SDS011;2059;48.538;12.146;2023-03-03T17:19:12;41.77;;;28.00;;
4089;SDS011;2059;48.538;12.146;2023-03-03T17:24:25;41.40;;;29.47;;
4089;SDS011;2059;48.538;12.146;2023-03-03T17:29:45;44.00;;;31.40;;
4089;SDS011;2059;48.538;12.146;2023-03-03T17:35:02;41.27;;;29.83;;
4089;SDS011;2059;48.538;12.146;2023-03-03T17:40:27;41.80;;;28.97;;
4089;SDS011;2059;48.538;12.146;2023-03-03T17:45:47;42.00;;;30.00;;
4089;SDS011;2059;48.538;12.146;2023-03-03T17:50:58;45.87;;;28.90;;
4089;SDS011;2059;48.538;12.146;2023-03-03T17:56:15;49.53;;;33.10;;
4089;SDS011;2059;48.538;12.146;2023-03-03T18:01:21;69.33;;;41.87;;
4089;SDS011;2059;48.538;12.146;2023-03-03T18:06:37;52.60;;;35.70;;
4089;SDS011;2059;48.538;12.146;2023-03-03T18:11:58;54.23;;;37.17;;
4089;SDS011;2059;48.538;12.146;2023-03-03T18:17:24;55.83;;;37.27;;
4089;SDS011;2059;48.538;12.146;2023-03-03T18:22:41;56.20;;;37.33;;
4089;SDS011;2059;48.538;12.146;2023-03-03T18:27:44;57.87;;;40.10;;
4089;SDS011;2059;48.538;12.146;2023-03-03T18:32:57;59.80;;;38.10;;
4089;SDS011;2059;48.538;12.146;2023-03-03T18:38:25;67.30;;;41.13;;
4089;SDS011;2059;48.538;12.146;2023-03-03T18:43:51;62.83;;;40.00;;
4089;SDS011;2059;48.538;12.146;2023-03-03T18:48:56;57.50;;;39.80;;
4089;SDS011;2059;48.538;12.146;2023-03-03T18:54:02;65.93;;;41.33;;
4089;SDS011;2059;48.538;12.146;2023-03-03T18:59:37;62.30;;;38.93;;
4089;SDS011;2059;48.538;12.146;2023-03-03T19:04:40;70.13;;;42.47;;
4089;SDS011;2059;48.538;12.146;2023-03-03T19:09:55;65.87;;;42.30;;
4089;SDS011;2059;48.538;12.146;2023-03-03T19:15:00;62.70;;;40.07;;
4089;SDS011;2059;48.538;12.146;2023-03-03T19:20:04;59.97;;;40.37;;
4089;SDS011;2059;48.538;12.146;2023-03-03T19:25:16;60.43;;;37.70;;
4089;SDS011;2059;48.538;12.146;2023-03-03T19:30:35;63.87;;;40.70;;
4089;SDS011;2059;48.538;12.146;2023-03-03T19:35:52;63.00;;;39.63;;
4089;SDS011;2059;48.538;12.146;2023-03-03T19:41:09;62.77;;;39.20;;
4089;SDS011;2059;48.538;12.146;2023-03-03T19:46:25;69.70;;;39.57;;
4089;SDS011;2059;48.538;12.146;2023-03-03T19:51:34;55.20;;;36.30;;
4089;SDS011;2059;48.538;12.146;2023-03-03T19:56:46;63.10;;;36.70;;
4089;SDS011;2059;48.538;12.146;2023-03-03T20:01:56;57.30;;;36.77;;
4089;SDS011;2059;48.538;12.146;2023-03-03T20:07:09;61.87;;;39.03;;
4089;SDS011;2059;48.538;12.146;2023-03-03T20:12:28;59.47;;;35.63;;
4089;SDS011;2059;48.538;12.146;2023-03-03T20:17:43;61.17;;;38.27;;
4089;SDS011;2059;48.538;12.146;2023-03-03T20:23:06;56.60;;;36.43;;
4089;SDS011;2059;48.538;12.146;2023-03-03T20:33:54;55.83;;;35.70;;
4089;SDS011;2059;48.538;12.146;2023-03-03T20:39:06;52.70;;;36.00;;
4089;SDS011;2059;48.538;12.146;2023-03-03T20:44:12;58.33;;;35.70;;
4089;SDS011;2059;48.538;12.146;2023-03-03T20:54:55;58.13;;;34.10;;
4089;SDS011;2059;48.538;12.146;2023-03-03T21:00:05;54.07;;;34.70;;
4089;SDS011;2059;48.538;12.146;2023-03-03T21:05:15;49.33;;;35.10;;
4089;SDS011;2059;48.538;12.146;2023-03-03T21:10:19;52.60;;;35.27;;
4089;SDS011;2059;48.538;12.146;2023-03-03T21:15:27;54.10;;;35.20;;
4089;SDS011;2059;48.538;12.146;2023-03-03T21:20:32;61.40;;;36.17;;
4089;SDS011;2059;48.538;12.146;2023-03-03T21:25:44;48.73;;;32.63;;
4089;SDS011;2059;48.538;12.146;2023-03-03T21:36:19;52.30;;;34.67;;
4089;SDS011;2059;48.538;12.146;2023-03-03T21:41:23;57.63;;;35.03;;
4089;SDS011;2059;48.538;12.146;2023-03-03T21:46:26;54.53;;;35.63;;
4089;SDS011;2059;48.538;12.146;2023-03-03T21:51:29;54.57;;;34.17;;
4089;SDS011;2059;48.538;12.146;2023-03-03T21:56:31;51.47;;;34.17;;
4089;SDS011;2059;48.538;12.146;2023-03-03T22:01:34;57.13;;;36.47;;
4089;SDS011;2059;48.538;12.146;2023-03-03T22:06:37;52.63;;;34.90;;
4089;SDS011;2059;48.538;12.146;2023-03-03T22:11:39;51.70;;;34.30;;
4089;SDS011;2059;48.538;12.146;2023-03-03T22:16:41;49.83;;;32.90;;
4089;SDS011;2059;48.538;12.146;2023-03-03T22:21:44;58.50;;;36.07;;
4089;SDS011;2059;48.538;12.146;2023-03-03T22:26:46;56.07;;;36.77;;
4089;SDS011;2059;48.538;12.146;2023-03-03T22:31:48;55.30;;;34.57;;
4089;SDS011;2059;48.538;12.146;2023-03-03T22:36:51;59.47;;;35.73;;
4089;SDS011;2059;48.538;12.146;2023-03-03T22:41:57;54.30;;;36.83;;
4089;SDS011;2059;48.538;12.146;2023-03-03T22:46:59;55.67;;;34.73;;
4089;SDS011;2059;48.538;12.146;2023-03-03T22:52:02;61.50;;;36.93;;
4089;SDS011;2059;48.538;12.146;2023-03-03T22:57:04;54.40;;;36.10;;
4089;SDS011;2059;48.538;12.146;2023-03-03T23:02:05;58.37;;;35.63;;
4089;SDS011;2059;48.538;12.146;2023-03-03T23:07:09;55.40;;;37.00;;
4089;SDS011;2059;48.538;12.146;2023-03-03T23:12:11;50.80;;;34.43;;
4089;SDS011;2059;48.538;12.146;2023-03-03T23:17:12;60.77;;;35.23;;
4089;SDS011;2059;48.538;12.146;2023-03-03T23:22:16;56.37;;;35.93;;
4089;SDS011;2059;48.538;12.146;2023-03-03T23:27:18;54.30;;;36.30;;
4089;SDS011;2059;48.538;12.146;2023-03-03T23:32:20;58.17;;;35.97;;
4089;SDS011;2059;48.538;12.146;2023-03-03T23:37:24;64.90;;;37.70;;
4089;SDS011;2059;48.538;12.146;2023-03-03T23:42:26;54.20;;;35.13;;
4089;SDS011;2059;48.538;12.146;2023-03-03T23:47:29;54.63;;;34.77;;
4089;SDS011;2059;48.538;12.146;2023-03-03T23:52:33;55.60;;;36.87;;
4089;SDS011;2059;48.538;12.146;2023-03-03T23:57:34;63.07;;;36.37;;
